Sant Hilari Sacalm





Hora UTC 17:50
Temperatura 18.4 ºC
Humitat 86.1 %
Pressió 1014.1 hPa
Pluja 0.0 mm
Velocitat vent 3.8 km/h
Direcció vent SSE
Radiació solar 29.4 W/m²

Dades diàries 2020-08-03



Hora UTC (hivern +1h; estiu +2h)
Temperatura (ºC) Humitat (%) Pressió (hPa) Velocitat vent (km/h) Precipitació (mm) Radiació solar (W/m²)
Hora UTC Aire Humitat Pressió Vel. Dir. Vel. Max Dir. Intent. màx 5 min. Rad. Sol.
00:05 18.5 89.0 1015.5 0.0 SW 0.0 SW 0.0 0.1
00:10 18.6 91.2 1015.5 2.1 SE 6.1 SE 0.0 0.2
00:15 18.8 91.5 1015.4 1.7 SE 6.1 SSE 0.0 0.1
00:20 18.7 90.9 1015.4 1.4 NNE 6.1 NNE 0.0 0.1
00:25 18.2 90.7 1015.4 0.4 ESE 3.4 ESE 0.0 0.1
00:30 18.3 88.7 1015.4 3.4 ESE 6.1 ESE 0.0 0.1
00:35 18.5 87.5 1015.3 1.3 E 6.1 E 0.0 0.1
00:40 18.3 87.8 1015.3 0.5 E 6.1 E 0.0 0.1
00:45 18.0 89.6 1015.3 2.9 NNE 6.1 NNE 0.0 0.1
00:50 17.7 90.8 1015.2 0.3 NNE 3.4 NNE 0.0 0.1
00:55 17.7 90.3 1015.1 0.2 NNE 3.4 NNE 0.0 0.1
01:00 17.8 89.8 1015.0 2.4 NNW 6.1 NNW 0.0 0.1
01:05 17.8 90.3 1015.0 0.0 N 3.4 N 0.0 0.1
01:10 18.1 91.4 1014.9 1.9 ENE 6.1 ENE 0.0 0.1
01:15 18.2 91.6 1014.9 0.6 NE 3.4 E 0.0 0.1
01:20 18.1 91.6 1014.8 1.1 NNW 6.1 NNW 0.0 0.1
01:25 18.0 90.2 1014.6 0.1 NNE 3.4 NNE 0.0 0.1
01:30 18.0 90.1 1014.6 0.0 NNE 0.0 NNE 0.0 0.1
01:35 18.2 91.2 1014.5 1.5 NNE 8.8 ENE 0.0 0.1
01:40 18.6 89.9 1014.5 3.4 SW 8.8 WSW 0.0 0.1
01:45 18.7 85.9 1014.4 3.6 W 11.5 NW 0.0 0.2
01:50 18.6 82.4 1014.5 5.6 WNW 11.5 WNW 0.0 0.1
01:55 18.5 80.3 1014.5 3.7 W 8.8 W 0.0 0.1
02:00 18.4 79.5 1014.6 5.3 WNW 11.5 NW 0.0 0.1
02:05 18.2 78.7 1014.7 4.9 WNW 8.8 NW 0.0 0.1
02:10 18.2 76.6 1014.7 6.9 W 14.2 W 0.0 0.1
02:15 18.1 75.6 1014.7 5.5 WSW 22.3 S 0.0 0.1
02:20 18.4 73.4 1014.7 6.6 SW 16.9 WSW 0.0 0.1
02:25 18.5 74.2 1014.7 5.5 SW 11.5 SW 0.0 0.1
02:30 18.4 74.6 1014.6 6.3 S 14.2 S 0.0 0.1
02:35 18.4 72.1 1014.5 8.9 S 16.9 S 0.0 0.1
02:40 18.5 70.1 1014.5 5.3 SW 14.2 SW 0.0 0.1
02:45 18.5 69.9 1014.6 3.3 WSW 8.8 WSW 0.0 0.1
02:50 18.4 70.8 1014.7 4.0 W 11.5 WNW 0.0 0.1
02:55 18.3 71.2 1014.8 5.3 WNW 11.5 W 0.0 0.1
03:00 18.0 70.7 1014.9 10.0 WNW 19.6 NNW 0.0 0.1
03:05 17.7 70.4 1014.8 8.7 W 19.6 NW 0.0 0.1
03:10 17.8 69.5 1014.6 6.6 SW 11.5 SW 0.0 0.1
03:15 17.7 68.9 1014.6 2.1 WSW 8.8 WSW 0.0 0.1
03:20 17.5 71.1 1014.4 1.9 W 6.1 WNW 0.0 0.1
03:25 17.4 71.6 1014.4 3.2 WSW 8.8 SW 0.0 0.1
03:30 17.4 72.0 1014.5 3.9 W 11.5 W 0.0 0.1
03:35 17.3 72.9 1014.5 1.0 WSW 6.1 SW 0.0 0.1
03:40 17.1 74.2 1014.6 4.9 WNW 8.8 WNW 0.0 0.1
03:45 16.9 76.6 1014.8 5.1 W 16.9 WSW 0.0 0.1
03:50 16.9 76.9 1014.9 7.8 WNW 14.2 SW 0.0 0.1
03:55 16.6 76.8 1014.9 10.9 WNW 22.3 WNW 0.0 0.1
04:00 16.4 79.5 1014.8 8.4 W 19.6 WSW 0.0 0.1
04:05 16.2 80.2 1014.8 7.0 WSW 16.9 W 0.0 0.1
04:10 16.2 79.9 1014.6 7.4 WSW 16.9 SW 0.0 0.1
04:15 16.1 80.4 1014.5 7.6 W 14.2 WSW 0.0 0.1
04:20 15.9 80.8 1014.3 5.2 WSW 11.5 W 0.0 0.1
04:25 16.1 80.4 1014.2 4.1 WSW 11.5 WSW 0.0 0.1
04:30 16.2 79.8 1014.4 3.6 S 8.8 WSW 0.0 0.1
04:35 16.3 79.5 1014.5 2.2 WSW 6.1 SSW 0.0 0.1
04:40 16.0 81.4 1014.6 0.1 W 3.4 WNW 0.0 0.1
04:45 16.0 80.5 1014.4 0.9 S 6.1 S 0.0 0.2
04:50 16.1 80.7 1014.4 1.9 SE 6.1 S 0.0 0.4
04:55 15.4 85.0 1014.4 3.0 NNW 6.1 NNW 0.0 0.7
05:00 15.4 83.4 1014.6 1.9 N 6.1 NNE 0.0 1.4
05:05 15.6 82.5 1014.6 0.9 ENE 6.1 NE 0.0 3.0
05:10 15.8 82.1 1014.6 1.1 SE 6.1 ESE 0.0 4.0
05:15 16.1 81.2 1014.5 0.0 NNE 0.0 S 0.0 5.1
05:20 15.8 82.5 1014.4 1.2 NNW 6.1 NNW 0.0 8.3
05:25 15.7 81.6 1014.3 1.5 NNE 6.1 E 0.0 11.4
05:30 16.0 80.7 1014.3 2.7 E 8.8 E 0.0 14.1
05:35 16.1 81.2 1014.4 0.1 NW 3.4 NW 0.0 16.1
05:40 15.9 81.0 1014.6 2.3 NNW 6.1 NNW 0.0 17.9
05:45 15.8 80.2 1014.8 4.7 NW 8.8 WNW 0.0 18.2
05:50 15.7 81.2 1014.8 2.9 WNW 6.1 NW 0.0 19.7
05:55 15.8 82.1 1014.8 1.3 WSW 6.1 WSW 0.0 21.7
06:00 16.0 82.1 1015.0 3.8 SSW 8.8 SSE 0.0 24.5
06:05 16.3 80.9 1014.9 5.9 SSE 11.5 SE 0.0 35.2
06:10 16.3 81.2 1014.7 7.8 SE 14.2 SE 0.0 44.9
06:15 16.2 81.0 1014.6 5.8 SE 14.2 SE 0.0 48.4
06:20 16.3 81.9 1014.4 2.0 E 6.1 ESE 0.0 47.8
06:25 16.0 84.5 1014.6 0.9 N 6.1 N 0.0 41.8
06:30 15.7 86.5 1014.8 1.1 N 6.1 NNW 0.0 49.5
06:35 15.6 87.5 1014.7 5.1 NNE 8.8 N 0.0 59.1
06:40 15.5 87.2 1014.8 5.1 N 8.8 NNW 0.0 54.7
06:45 15.3 87.8 1014.9 3.4 N 6.1 N 0.0 76.6
06:50 15.4 88.7 1014.8 5.7 NNE 8.8 N 0.0 130.5
06:55 15.6 87.0 1014.7 2.5 ENE 6.1 NNE 0.0 104.0
07:00 15.8 82.9 1014.9 1.1 SE 6.1 SE 0.0 65.5
07:05 15.9 82.9 1014.8 0.0 NNE 0.0 W 0.0 75.1
07:10 16.1 82.4 1014.8 0.0 NNE 0.0 W 0.0 204.4
07:15 16.8 79.1 1015.0 1.2 SW 8.8 SSW 0.0 419.6
07:20 17.6 75.4 1015.0 1.9 SW 6.1 SW 0.0 431.7
07:25 18.4 73.5 1015.1 3.5 WSW 8.8 W 0.0 423.9
07:30 18.7 73.1 1015.3 3.6 SW 6.1 WSW 0.0 485.7
07:35 18.6 72.6 1015.3 3.5 SSW 8.8 WSW 0.0 397.5
07:40 18.8 70.3 1015.3 3.1 WNW 8.8 NNW 0.0 490.2
07:45 19.0 69.4 1015.2 2.9 NNE 8.8 NNE 0.0 506.4
07:50 19.4 67.4 1015.1 2.4 N 11.5 N 0.0 517.9
07:55 19.6 64.8 1015.1 5.0 N 11.5 N 0.0 540.0
08:00 19.8 63.1 1015.1 3.8 N 11.5 NNE 0.0 564.3
08:05 20.0 62.5 1015.0 5.5 N 11.5 N 0.0 406.9
08:10 19.5 60.4 1015.1 4.1 WNW 8.8 NE 0.0 352.4
08:15 19.5 59.1 1015.1 2.5 WSW 8.8 WSW 0.0 607.8
08:20 20.1 57.3 1015.1 3.6 W 8.8 W 0.0 422.5
08:25 19.8 57.3 1015.1 3.3 NW 8.8 NW 0.0 139.9
08:30 19.3 57.8 1015.2 2.9 SW 8.8 NE 0.0 354.1
08:35 19.4 58.6 1015.2 2.6 NW 11.5 NW 0.0 675.3
08:40 20.1 59.5 1015.3 5.7 NNW 14.2 N 0.0 677.4
08:45 20.2 59.7 1015.2 4.1 NNW 11.5 N 0.0 689.5
08:50 21.0 58.9 1015.2 3.0 NNW 8.8 NNE 0.0 702.5
08:55 21.4 56.7 1015.3 3.8 W 8.8 W 0.0 738.2
09:00 21.7 53.8 1015.3 1.6 SSE 8.8 SSW 0.0 755.3
09:05 21.7 56.5 1015.3 2.9 SE 8.8 SE 0.0 821.0
09:10 21.9 56.6 1015.3 3.0 ESE 11.5 E 0.0 792.4
09:15 21.9 57.5 1015.3 2.1 ESE 8.8 NE 0.0 453.7
09:20 20.9 60.4 1015.2 3.9 NE 11.5 ENE 0.0 275.6
09:25 20.5 64.8 1015.2 5.3 N 11.5 NNE 0.0 677.0
09:30 21.1 61.0 1015.1 4.0 SW 8.8 W 0.0 812.0
09:35 21.2 57.3 1015.1 6.7 SSE 14.2 SE 0.0 864.0
09:40 21.3 59.0 1015.2 6.0 SSE 14.2 SE 0.0 894.0
09:45 21.3 62.8 1015.2 8.7 ENE 16.9 E 0.0 931.0
09:50 21.2 62.8 1015.3 8.4 E 16.9 E 0.0 520.8
09:55 21.1 64.5 1015.2 7.2 NE 14.2 E 0.0 625.8
10:00 21.1 65.0 1015.2 6.4 NNE 11.5 N 0.0 663.3
10:05 21.2 62.4 1015.3 4.6 E 11.5 ENE 0.0 341.2
10:10 21.1 63.7 1015.3 3.7 ENE 11.5 E 0.0 307.9
10:15 20.7 65.1 1015.3 4.0 ENE 8.8 NNE 0.0 256.3
10:20 20.8 66.1 1015.2 3.8 E 8.8 E 0.0 494.1
10:25 20.6 65.8 1015.2 5.4 E 11.5 E 0.0 215.4
10:30 20.6 65.4 1015.2 2.7 E 8.8 E 0.0 390.4
10:35 20.7 65.4 1015.1 5.5 ESE 14.2 E 0.0 518.6
10:40 21.0 65.1 1015.2 4.7 E 8.8 E 0.0 863.0
10:45 21.3 64.0 1015.1 6.8 ENE 14.2 E 0.0 568.0
10:50 21.4 62.7 1015.2 6.5 ENE 14.2 E 0.0 879.0
10:55 21.6 61.8 1015.2 6.3 ENE 14.2 ENE 0.0 864.0
11:00 21.6 61.3 1015.2 6.2 E 14.2 ESE 0.0 431.0
11:05 21.7 61.1 1015.1 8.3 E 16.9 E 0.0 627.1
11:10 21.2 61.3 1015.2 6.1 ESE 14.2 NE 0.0 201.2
11:15 21.0 63.6 1015.1 5.3 E 14.2 ENE 0.0 220.9
11:20 21.0 62.1 1015.1 6.5 E 11.5 E 0.0 265.1
11:25 21.2 64.2 1015.1 3.3 NE 8.8 ENE 0.0 380.0
11:30 21.0 63.3 1015.1 2.5 ENE 6.1 NE 0.0 387.8
11:35 21.6 63.2 1015.1 2.7 NNE 11.5 NE 0.0 377.8
11:40 21.5 61.4 1015.2 1.9 NNE 8.8 NE 0.0 195.2
11:45 21.4 64.3 1015.2 2.2 NE 8.8 NE 0.0 162.7
11:50 21.2 62.8 1015.2 5.3 E 8.8 E 0.0 177.2
11:55 21.3 61.5 1015.1 5.7 ESE 11.5 ESE 0.0 339.2
12:00 21.4 60.3 1015.1 4.2 SSE 11.5 SSE 0.0 310.2
12:05 21.4 60.9 1015.1 2.5 WSW 6.1 SSW 0.0 305.8
12:10 21.6 62.7 1015.0 2.6 NE 8.8 ENE 0.0 233.1
12:15 21.4 61.1 1015.0 4.0 ENE 8.8 ENE 0.0 201.8
12:20 21.3 62.1 1015.0 3.0 E 8.8 NE 0.0 260.0
12:25 21.4 61.9 1014.9 5.4 E 11.5 ESE 0.0 371.2
12:30 21.9 60.8 1014.8 7.8 ESE 16.9 ESE 0.0 871.0
12:35 21.9 60.0 1014.8 10.2 E 19.6 E 0.0 599.1
12:40 21.6 60.1 1014.7 8.9 ENE 16.9 ENE 0.0 368.2
12:45 21.5 61.1 1014.7 8.6 E 14.2 NE 0.0 427.6
12:50 21.8 60.9 1014.7 5.6 ENE 11.5 ENE 0.0 325.1
12:55 21.9 60.7 1014.6 4.6 E 11.5 SSE 0.0 445.5
13:00 21.9 60.0 1014.6 9.0 ENE 19.6 E 0.0 408.2
13:05 21.6 60.8 1014.6 7.4 ENE 16.9 E 0.0 351.9
13:10 21.7 60.4 1014.6 7.2 ENE 19.6 E 0.0 384.9
13:15 21.5 61.5 1014.6 6.8 NE 14.2 ENE 0.0 223.0
13:20 21.4 61.1 1014.6 5.3 E 16.9 ENE 0.0 159.2
13:25 21.1 63.3 1014.7 8.2 E 19.6 E 0.0 164.2
13:30 20.9 65.2 1014.7 6.8 E 14.2 E 0.0 172.4
13:35 20.9 64.9 1014.6 6.1 E 14.2 ENE 0.0 234.0
13:40 21.0 64.6 1014.6 6.3 E 11.5 E 0.0 206.2
13:45 21.0 64.3 1014.5 7.4 E 14.2 ENE 0.0 178.5
13:50 20.9 64.8 1014.4 8.0 E 14.2 E 0.0 157.5
13:55 20.8 65.1 1014.4 6.8 E 14.2 ESE 0.0 139.3
14:00 20.8 64.3 1014.3 6.5 E 11.5 ESE 0.0 113.2
14:05 20.8 63.7 1014.3 6.0 ESE 11.5 E 0.0 95.9
14:10 20.7 65.5 1014.4 4.9 ESE 8.8 ESE 0.0 96.8
14:15 20.5 68.7 1014.3 8.4 SSE 16.9 SE 0.0 119.1
14:20 20.2 70.5 1014.2 7.4 ESE 14.2 ESE 0.0 168.7
14:25 20.4 70.0 1014.2 6.6 ESE 14.2 E 0.0 200.5
14:30 20.2 70.2 1014.2 5.5 SE 11.5 SE 0.0 189.2
14:35 20.3 70.6 1014.1 6.5 ESE 14.2 E 0.0 177.1
14:40 20.2 70.7 1014.1 5.8 ESE 14.2 E 0.0 178.3
14:45 20.2 71.4 1014.0 4.5 E 14.2 NNE 0.0 181.6
14:50 20.3 70.9 1014.0 6.8 SE 14.2 SSE 0.0 225.8
14:55 20.2 71.3 1014.1 6.8 SSE 14.2 SSE 0.0 149.4
15:00 20.4 70.5 1014.1 6.3 E 11.5 ENE 0.0 135.0
15:05 20.2 71.3 1014.0 7.7 ESE 14.2 ESE 0.0 130.1
15:10 20.1 72.0 1014.1 6.4 SE 14.2 SE 0.0 87.0
15:15 20.1 71.8 1014.0 7.2 SE 16.9 SE 0.0 101.1
15:20 20.1 71.5 1014.0 6.3 SSE 14.2 S 0.0 133.9
15:25 20.0 71.7 1014.0 7.7 SSE 14.2 S 0.0 108.2
15:30 19.8 72.8 1014.0 7.8 SSW 14.2 S 0.0 119.8
15:35 19.8 73.2 1013.9 7.8 SE 14.2 S 0.0 128.4
15:40 19.8 73.5 1013.9 7.0 ESE 11.5 ESE 0.0 121.1
15:45 19.9 73.8 1013.9 6.6 ESE 11.5 E 0.0 85.8
15:50 19.8 74.5 1013.9 7.1 SE 14.2 SE 0.0 81.2
15:55 19.7 75.2 1013.9 4.9 ESE 11.5 SSE 0.0 56.6
16:00 19.8 75.0 1014.0 3.3 SE 8.8 SE 0.0 41.1
16:05 19.6 75.8 1014.1 4.1 SE 8.8 SE 0.0 46.8
16:10 19.5 77.2 1013.9 7.7 ESE 14.2 E 0.0 80.2
16:15 19.4 78.0 1014.0 5.9 SE 11.5 ESE 0.0 86.8
16:20 19.3 78.5 1014.1 4.9 SE 11.5 ESE 0.0 63.9
16:25 19.4 78.4 1014.1 6.7 ESE 11.5 ESE 0.0 69.8
16:30 19.3 78.9 1014.2 3.8 E 11.5 ENE 0.0 46.6
16:35 19.3 79.4 1014.1 5.8 E 8.8 E 0.0 64.2
16:40 19.1 80.2 1014.1 3.2 ENE 8.8 E 0.0 56.5
16:45 19.1 80.3 1014.1 2.5 E 6.1 ENE 0.0 71.9
16:50 19.2 80.3 1014.1 5.3 ESE 8.8 ENE 0.0 77.8
16:55 19.1 80.7 1014.1 6.2 ESE 11.5 SE 0.0 65.0
17:00 19.0 81.6 1014.2 4.3 ENE 11.5 ENE 0.0 53.5
17:05 18.9 82.7 1014.1 5.3 ENE 11.5 NE 0.0 71.3
17:10 19.0 82.3 1014.1 5.0 ESE 11.5 SE 0.0 60.2
17:15 19.0 82.4 1014.0 3.4 E 8.8 ENE 0.0 39.1
17:20 18.9 82.2 1014.0 5.5 SE 8.8 SE 0.0 35.3
17:25 18.9 82.6 1014.0 5.3 E 11.5 ENE 0.0 40.3
17:30 18.8 82.9 1014.0 5.3 E 11.5 ENE 0.0 57.1
17:35 18.9 82.8 1014.1 3.0 SE 8.8 E 0.0 61.2
17:40 18.9 83.0 1014.1 2.3 SE 6.1 ESE 0.0 34.8
17:45 18.7 84.7 1014.1 6.9 SSE 14.2 SE 0.0 27.7
17:50 18.4 86.1 1014.1 3.8 SSE 8.8 SSE 0.0 29.4
Màxima 22.1 91.6 1015.5 10.9 WNW 22.3 WNW 0.0 931.0
Mínima 15.3 53.8 1013.9
Total 0.0